Time;durP1;ratioP1;P1;durP2;ratioP2;P2;SDS_P1;SDS_P2;PMS_P1;PMS_P2;Temp;Humidity;BMP_temperature;BMP_pressure;BME280_temperature;BME280_humidity;BME280_pressure;Samples;Min_cycle;Max_cycle;Signal;HPM_P1;HPM_P2
2021/10/15 00:01:37;;;;;;;16.97;7.13;;;11.70;99.90;;;;;;5020962;28;20722;-86
2021/10/15 00:04:03;;;;;;;17.60;7.40;;;11.70;99.90;;;;;;5033858;28;20188;-86
2021/10/15 00:06:28;;;;;;;17.77;7.73;;;11.70;99.90;;;;;;5052088;28;20279;-84
2021/10/15 00:08:54;;;;;;;20.30;7.03;;;11.80;99.90;;;;;;5050520;28;20196;-85
2021/10/15 00:11:20;;;;;;;18.73;8.40;;;11.80;99.90;;;;;;5034950;28;20440;-86
2021/10/15 00:13:46;;;;;;;15.87;7.47;;;11.80;99.90;;;;;;5033912;28;20187;-86
2021/10/15 00:16:11;;;;;;;16.20;7.43;;;11.80;99.90;;;;;;5037452;28;20213;-85
2021/10/15 00:18:37;;;;;;;15.73;6.80;;;11.90;99.90;;;;;;5066342;28;20644;-86
2021/10/15 00:21:03;;;;;;;17.77;8.07;;;12.00;99.90;;;;;;5033704;28;20247;-85
2021/10/15 00:23:29;;;;;;;17.07;7.67;;;12.00;99.90;;;;;;5032263;28;20193;-86
2021/10/15 00:25:55;;;;;;;17.50;8.50;;;12.10;99.90;;;;;;5049695;28;20456;-86
2021/10/15 00:28:20;;;;;;;15.20;7.63;;;12.00;99.90;;;;;;5035531;28;20517;-85
2021/10/15 00:30:46;;;;;;;14.70;6.97;;;12.10;99.90;;;;;;5032913;28;20244;-86
2021/10/15 00:33:12;;;;;;;15.43;6.73;;;12.20;99.90;;;;;;5037885;28;20207;-87
2021/10/15 00:35:39;;;;;;;14.57;7.17;;;12.30;99.90;;;;;;5033974;28;20220;-86
2021/10/15 00:38:05;;;;;;;17.70;7.33;;;12.30;99.90;;;;;;5036771;28;20193;-85
2021/10/15 00:40:30;;;;;;;17.67;7.10;;;12.30;99.90;;;;;;5031664;28;20650;-85
2021/10/15 00:42:56;;;;;;;15.60;7.77;;;12.40;99.90;;;;;;5050618;28;20186;-86
2021/10/15 00:45:22;;;;;;;16.40;7.53;;;12.40;99.90;;;;;;5036154;28;20177;-85
2021/10/15 00:47:48;;;;;;;19.70;7.67;;;12.40;99.90;;;;;;5030432;28;20777;-85
2021/10/15 00:50:13;;;;;;;14.23;7.47;;;12.40;99.90;;;;;;5050383;28;20537;-85
2021/10/15 00:52:40;;;;;;;14.87;7.10;;;12.50;99.90;;;;;;5020865;28;20212;-86
2021/10/15 00:55:06;;;;;;;20.73;7.30;;;12.50;99.90;;;;;;5048350;28;20185;-84
2021/10/15 00:57:33;;;;;;;17.00;6.67;;;12.50;99.90;;;;;;5017637;28;20267;-85
2021/10/15 00:59:59;;;;;;;13.20;6.93;;;12.50;99.90;;;;;;5032349;28;20200;-85
2021/10/15 01:02:24;;;;;;;16.27;7.00;;;12.60;99.90;;;;;;5038254;28;20185;-87
2021/10/15 01:04:50;;;;;;;16.13;7.43;;;12.60;99.90;;;;;;5035824;28;20185;-86
2021/10/15 01:07:18;;;;;;;15.33;6.73;;;12.60;99.90;;;;;;5024009;28;20718;-85
2021/10/15 01:09:45;;;;;;;17.50;7.40;;;12.60;99.90;;;;;;5034354;28;20189;-87
2021/10/15 01:12:11;;;;;;;16.33;7.40;;;12.60;99.90;;;;;;5048615;28;20193;-86
2021/10/15 01:14:37;;;;;;;16.30;7.47;;;12.70;99.90;;;;;;5036187;28;20211;-87
2021/10/15 01:17:04;;;;;;;18.83;7.50;;;12.70;99.90;;;;;;5034684;28;20292;-87
2021/10/15 01:19:30;;;;;;;13.83;7.03;;;12.70;99.90;;;;;;5035749;28;20208;-86
2021/10/15 01:22:05;;;;;;;17.63;7.47;;;12.80;99.90;;;;;;5033838;28;20185;-87
2021/10/15 01:24:32;;;;;;;19.33;7.87;;;12.90;99.90;;;;;;5063750;28;21557;-86
2021/10/15 01:27:03;;;;;;;16.07;8.00;;;12.90;99.90;;;;;;5029821;28;20190;-87
2021/10/15 01:29:29;;;;;;;16.53;7.93;;;12.90;99.90;;;;;;5017405;28;20356;-86
2021/10/15 01:31:57;;;;;;;13.77;8.23;;;13.00;99.90;;;;;;5047181;28;20691;-87
2021/10/15 01:34:23;;;;;;;17.70;8.07;;;12.90;99.90;;;;;;5034950;28;20200;-85
2021/10/15 01:36:49;;;;;;;16.30;7.77;;;13.00;99.90;;;;;;5018079;28;20278;-86
2021/10/15 01:39:15;;;;;;;16.03;8.40;;;12.90;99.90;;;;;;5032054;28;20170;-87
2021/10/15 01:41:40;;;;;;;16.13;7.53;;;13.00;99.90;;;;;;5032040;28;20194;-86
2021/10/15 01:44:06;;;;;;;16.10;7.97;;;13.00;99.90;;;;;;5015806;28;20197;-87
2021/10/15 01:46:32;;;;;;;16.63;7.77;;;13.10;99.90;;;;;;5032311;28;20180;-86
2021/10/15 01:48:57;;;;;;;16.83;7.87;;;13.00;99.90;;;;;;5033794;28;20193;-86
2021/10/15 01:51:23;;;;;;;17.70;7.90;;;13.00;99.90;;;;;;5038204;28;20188;-85
2021/10/15 01:53:49;;;;;;;17.50;7.90;;;13.00;99.90;;;;;;5045901;28;20194;-86
2021/10/15 01:56:16;;;;;;;16.53;8.00;;;13.00;99.90;;;;;;5049892;28;20205;-86
2021/10/15 01:58:42;;;;;;;16.80;7.77;;;13.00;99.90;;;;;;5048703;28;20178;-86
2021/10/15 02:01:08;;;;;;;18.37;8.13;;;13.00;99.90;;;;;;5017416;28;20305;-87
2021/10/15 02:03:34;;;;;;;21.40;7.90;;;13.00;99.90;;;;;;5048003;28;20197;-86
2021/10/15 02:06:00;;;;;;;16.70;7.57;;;13.00;99.90;;;;;;5034062;28;20606;-85
2021/10/15 02:08:26;;;;;;;17.40;8.10;;;13.10;99.90;;;;;;5033445;28;20181;-87
2021/10/15 02:10:51;;;;;;;15.40;7.67;;;13.00;99.90;;;;;;5048398;28;20185;-86
2021/10/15 02:13:17;;;;;;;16.43;7.07;;;13.10;99.90;;;;;;5036597;28;20190;-86
2021/10/15 02:15:44;;;;;;;15.77;8.17;;;13.10;99.90;;;;;;5050712;28;20178;-86
2021/10/15 02:18:10;;;;;;;17.93;7.83;;;13.00;99.90;;;;;;5018196;28;20182;-87
2021/10/15 02:20:36;;;;;;;15.73;7.77;;;13.10;99.90;;;;;;5036664;28;20323;-87
2021/10/15 02:23:02;;;;;;;16.83;7.20;;;13.20;99.90;;;;;;5016928;28;20185;-87
2021/10/15 02:25:29;;;;;;;15.70;7.60;;;13.20;99.90;;;;;;5017290;28;20664;-87
2021/10/15 02:27:55;;;;;;;18.20;7.60;;;13.20;99.90;;;;;;5036569;28;20219;-86
2021/10/15 02:30:22;;;;;;;16.20;7.60;;;13.20;99.90;;;;;;5047369;28;20214;-87
2021/10/15 02:32:48;;;;;;;19.67;7.93;;;13.20;99.90;;;;;;5034940;28;20208;-84
2021/10/15 02:35:16;;;;;;;15.10;8.00;;;13.20;99.90;;;;;;5047886;28;20344;-87
2021/10/15 02:37:42;;;;;;;15.70;7.63;;;13.10;99.90;;;;;;5032082;28;20292;-87
2021/10/15 02:40:09;;;;;;;19.33;7.67;;;13.20;99.90;;;;;;5035243;28;20725;-87
2021/10/15 02:42:35;;;;;;;17.90;8.27;;;13.20;99.90;;;;;;5064518;28;20184;-86
2021/10/15 02:45:03;;;;;;;21.27;7.80;;;13.10;99.90;;;;;;5031960;28;20682;-85
2021/10/15 02:47:28;;;;;;;20.83;8.47;;;13.10;99.90;;;;;;5030395;28;20194;-86
2021/10/15 02:49:55;;;;;;;16.30;8.17;;;13.10;99.90;;;;;;5048188;28;20217;-86
2021/10/15 02:52:20;;;;;;;16.13;8.53;;;13.10;99.90;;;;;;5047306;28;20256;-87
2021/10/15 02:54:46;;;;;;;16.03;8.07;;;13.10;99.90;;;;;;5052364;28;20252;-85
2021/10/15 02:57:12;;;;;;;19.93;8.57;;;13.10;99.90;;;;;;5038043;28;20207;-87
2021/10/15 02:59:38;;;;;;;17.23;8.07;;;13.20;99.90;;;;;;5038202;28;20213;-87
2021/10/15 03:02:03;;;;;;;15.97;7.87;;;13.20;99.90;;;;;;5053494;28;20191;-85
2021/10/15 03:04:29;;;;;;;17.53;7.87;;;13.20;99.90;;;;;;5043515;28;20178;-86
2021/10/15 03:06:55;;;;;;;20.60;8.43;;;13.20;99.90;;;;;;5036079;28;20190;-86
2021/10/15 03:09:22;;;;;;;15.80;8.23;;;13.20;99.90;;;;;;5037167;28;20197;-87
2021/10/15 03:11:48;;;;;;;18.87;7.90;;;13.20;99.90;;;;;;5038499;28;20268;-85
2021/10/15 03:14:14;;;;;;;15.43;7.53;;;13.20;99.90;;;;;;5036191;28;20663;-86
2021/10/15 03:16:39;;;;;;;15.30;7.50;;;13.30;99.90;;;;;;5041117;28;20197;-84
2021/10/15 03:19:05;;;;;;;15.03;7.83;;;13.40;99.90;;;;;;5049123;28;20186;-86
2021/10/15 03:21:31;;;;;;;14.53;7.50;;;13.30;99.90;;;;;;5039076;28;20219;-87
2021/10/15 03:23:56;;;;;;;13.93;7.50;;;13.20;99.90;;;;;;5051040;28;20177;-87
2021/10/15 03:26:25;;;;;;;17.43;7.60;;;13.30;99.90;;;;;;5038263;28;20329;-86
2021/10/15 03:28:52;;;;;;;13.00;7.30;;;13.30;99.90;;;;;;5031026;28;20208;-87
2021/10/15 03:31:18;;;;;;;13.03;6.70;;;13.30;99.90;;;;;;5038110;28;20712;-88
2021/10/15 03:33:44;;;;;;;16.77;7.30;;;13.20;99.90;;;;;;5038224;28;20281;-88
2021/10/15 03:36:09;;;;;;;16.53;6.93;;;13.20;99.90;;;;;;5034577;28;20224;-88
2021/10/15 03:38:35;;;;;;;14.70;7.37;;;13.20;99.90;;;;;;5035945;28;20272;-86
2021/10/15 03:41:02;;;;;;;17.47;6.90;;;13.20;99.90;;;;;;5035391;28;20742;-88
2021/10/15 03:43:27;;;;;;;15.07;7.33;;;13.20;99.90;;;;;;5053199;28;20289;-88
2021/10/15 03:45:53;;;;;;;16.07;7.03;;;13.20;99.90;;;;;;5035569;28;20566;-86
2021/10/15 03:48:19;;;;;;;15.30;7.07;;;13.20;99.90;;;;;;5034615;28;20647;-87
2021/10/15 03:50:44;;;;;;;16.67;6.90;;;13.20;99.90;;;;;;5036295;28;20794;-87
2021/10/15 03:53:10;;;;;;;14.27;7.20;;;13.20;99.90;;;;;;5051774;28;20270;-86
2021/10/15 03:55:36;;;;;;;15.73;7.40;;;13.20;99.90;;;;;;5052273;28;20244;-87
2021/10/15 03:58:02;;;;;;;16.03;6.93;;;13.20;99.90;;;;;;5044782;28;20211;-86
2021/10/15 04:00:27;;;;;;;16.43;7.00;;;13.20;99.90;;;;;;5030465;28;20209;-88
2021/10/15 04:02:53;;;;;;;15.43;7.10;;;13.20;99.90;;;;;;5036441;28;20186;-86
2021/10/15 04:05:19;;;;;;;14.47;7.03;;;13.20;99.90;;;;;;5034651;28;20197;-85
2021/10/15 04:07:45;;;;;;;15.90;6.70;;;13.20;99.90;;;;;;5052079;28;20182;-87
2021/10/15 04:10:11;;;;;;;15.60;7.10;;;13.20;99.90;;;;;;5017234;28;20205;-88
2021/10/15 04:12:38;;;;;;;15.97;6.93;;;13.10;99.90;;;;;;5035793;28;20198;-87
2021/10/15 04:15:05;;;;;;;15.03;6.93;;;13.10;99.90;;;;;;5031495;28;20646;-87
2021/10/15 04:17:31;;;;;;;15.83;7.03;;;13.10;99.90;;;;;;5033126;28;20202;-88
2021/10/15 04:19:57;;;;;;;14.40;6.57;;;13.10;99.90;;;;;;5036844;28;20202;-89
2021/10/15 04:22:25;;;;;;;17.07;6.53;;;13.00;99.90;;;;;;5050046;28;20196;-88
2021/10/15 04:24:51;;;;;;;17.03;7.27;;;13.00;99.90;;;;;;5034388;28;20546;-87
2021/10/15 04:27:17;;;;;;;14.03;6.43;;;13.10;99.90;;;;;;5052734;28;20194;-87
2021/10/15 04:29:43;;;;;;;16.97;7.17;;;13.00;99.90;;;;;;5021409;28;20196;-86
2021/10/15 04:32:09;;;;;;;14.17;6.77;;;13.00;99.90;;;;;;5018961;28;20181;-86
2021/10/15 04:34:35;;;;;;;17.70;7.27;;;13.00;99.90;;;;;;5033575;28;20188;-87
2021/10/15 04:37:00;;;;;;;17.27;7.20;;;13.10;99.90;;;;;;5049366;28;20228;-86
2021/10/15 04:39:26;;;;;;;15.50;7.00;;;13.10;99.90;;;;;;5051813;28;20193;-87
2021/10/15 04:41:52;;;;;;;16.37;7.17;;;13.10;99.90;;;;;;5020244;28;20550;-87
2021/10/15 04:44:18;;;;;;;14.63;7.03;;;13.00;99.90;;;;;;5016842;28;20301;-87
2021/10/15 04:46:44;;;;;;;14.97;7.67;;;13.00;99.90;;;;;;5033629;28;20200;-88
2021/10/15 04:49:09;;;;;;;17.73;7.40;;;13.10;99.90;;;;;;5034045;28;20182;-88
2021/10/15 04:51:36;;;;;;;14.83;7.77;;;13.00;99.90;;;;;;5035844;28;20251;-86
2021/10/15 04:54:02;;;;;;;15.57;7.10;;;13.00;99.90;;;;;;5023410;28;20178;-88
2021/10/15 04:56:29;;;;;;;17.77;7.50;;;13.00;99.90;;;;;;5038936;28;20208;-89
2021/10/15 04:58:55;;;;;;;18.80;7.93;;;13.10;99.90;;;;;;5038321;28;20997;-86
2021/10/15 05:01:20;;;;;;;12.77;7.00;;;13.10;99.90;;;;;;5015223;28;20182;-86
2021/10/15 05:03:46;;;;;;;16.40;7.60;;;13.10;99.90;;;;;;5034381;28;20201;-86
2021/10/15 05:06:12;;;;;;;15.93;7.77;;;13.10;99.90;;;;;;5037247;28;20221;-86
2021/10/15 05:09:02;;;;;;;15.87;7.70;;;13.10;99.90;;;;;;5021470;28;20253;-86
2021/10/15 05:11:30;;;;;;;16.90;7.43;;;13.20;99.90;;;;;;5013674;28;20272;-87
2021/10/15 05:13:56;;;;;;;18.00;7.70;;;13.20;99.90;;;;;;5053068;28;20240;-87
2021/10/15 05:16:23;;;;;;;16.97;7.73;;;13.20;99.90;;;;;;5050229;28;20213;-87
2021/10/15 05:18:49;;;;;;;21.43;8.03;;;13.20;99.90;;;;;;5033345;28;20272;-86
2021/10/15 05:21:15;;;;;;;16.67;7.80;;;13.20;99.90;;;;;;5018759;28;20580;-85
2021/10/15 05:23:40;;;;;;;15.33;7.40;;;13.30;99.90;;;;;;5017863;28;20182;-87
2021/10/15 05:26:06;;;;;;;16.87;7.73;;;13.30;99.90;;;;;;5019518;28;20181;-88
2021/10/15 05:28:33;;;;;;;19.10;8.23;;;13.20;99.90;;;;;;5051396;28;20289;-86
2021/10/15 05:30:59;;;;;;;14.97;8.07;;;13.30;99.90;;;;;;5035283;28;20211;-86
2021/10/15 05:33:25;;;;;;;19.00;8.10;;;13.40;99.90;;;;;;5017924;28;20181;-87
2021/10/15 05:35:51;;;;;;;16.37;8.60;;;13.30;99.90;;;;;;5035252;28;20221;-86
2021/10/15 05:38:17;;;;;;;19.87;8.53;;;13.30;99.90;;;;;;5038036;28;20653;-86
2021/10/15 05:40:42;;;;;;;16.37;8.83;;;13.30;99.90;;;;;;5033033;28;20243;-85
2021/10/15 05:43:08;;;;;;;19.53;8.30;;;13.40;99.90;;;;;;5036678;28;20276;-88
2021/10/15 05:45:34;;;;;;;21.33;9.23;;;13.40;99.90;;;;;;5052099;28;20199;-87
2021/10/15 05:47:59;;;;;;;18.80;9.07;;;13.40;99.90;;;;;;5037529;28;20204;-86
2021/10/15 05:50:28;;;;;;;17.20;8.87;;;13.40;99.90;;;;;;5035386;28;20193;-86
2021/10/15 05:52:53;;;;;;;21.53;9.10;;;13.40;99.90;;;;;;5033050;28;20197;-85
2021/10/15 05:55:30;;;;;;;22.10;9.27;;;13.40;99.90;;;;;;5036124;28;20202;-85
2021/10/15 06:00:26;;;;;;;20.17;9.03;;;13.40;99.90;;;;;;5019264;28;20284;-86
2021/10/15 06:02:52;;;;;;;16.50;9.00;;;13.50;99.90;;;;;;5047857;28;20182;-86
2021/10/15 06:15:50;;;;;;;19.33;9.40;;;13.50;99.90;;;;;;5032855;28;20185;-86
2021/10/15 06:18:19;;;;;;;19.73;9.23;;;13.50;99.90;;;;;;5031661;28;20218;-86
2021/10/15 06:20:45;;;;;;;20.03;8.90;;;13.50;99.90;;;;;;5018678;28;20211;-85
2021/10/15 06:23:12;;;;;;;19.27;9.50;;;13.40;99.90;;;;;;5029112;28;20209;-85
2021/10/15 06:25:38;;;;;;;22.00;9.80;;;13.50;99.90;;;;;;5016655;28;20185;-87
2021/10/15 06:28:05;;;;;;;20.63;10.00;;;13.50;99.90;;;;;;5033776;28;20209;-87
2021/10/15 06:30:31;;;;;;;18.43;9.83;;;13.50;99.90;;;;;;5036467;28;20273;-86
2021/10/15 06:32:57;;;;;;;23.27;9.73;;;13.50;99.90;;;;;;5042244;28;20611;-87
2021/10/15 06:35:23;;;;;;;25.00;10.27;;;13.40;99.90;;;;;;5016171;28;21022;-87
2021/10/15 06:37:51;;;;;;;22.30;10.47;;;13.50;99.90;;;;;;5032447;28;20753;-87
2021/10/15 06:40:17;;;;;;;20.97;10.53;;;13.50;99.90;;;;;;5046365;28;20196;-86
2021/10/15 06:42:43;;;;;;;20.43;10.17;;;13.50;99.90;;;;;;5017966;28;20178;-86
2021/10/15 06:45:09;;;;;;;21.27;10.47;;;13.60;99.90;;;;;;5032054;28;20181;-87
2021/10/15 06:47:35;;;;;;;21.60;10.50;;;13.60;99.90;;;;;;5014205;28;20190;-87
2021/10/15 06:50:01;;;;;;;19.47;9.80;;;13.60;99.90;;;;;;5032189;28;20185;-85
2021/10/15 06:52:27;;;;;;;19.17;9.87;;;13.60;99.90;;;;;;5045736;28;20191;-87
2021/10/15 06:54:53;;;;;;;19.63;10.90;;;13.60;99.90;;;;;;5041275;28;20190;-87
2021/10/15 06:57:19;;;;;;;27.47;11.50;;;13.60;99.90;;;;;;5015891;28;20241;-87
2021/10/15 06:59:44;;;;;;;20.70;10.07;;;13.60;99.90;;;;;;5032346;28;20196;-87
2021/10/15 07:02:10;;;;;;;23.47;10.33;;;13.60;99.90;;;;;;5047470;28;20194;-86
2021/10/15 07:04:36;;;;;;;19.23;10.53;;;13.70;99.90;;;;;;5031446;28;20193;-87
2021/10/15 07:07:03;;;;;;;24.53;11.10;;;13.70;99.90;;;;;;5031533;28;20181;-87
2021/10/15 07:09:29;;;;;;;21.77;9.97;;;13.70;99.90;;;;;;5016549;28;20191;-87
2021/10/15 07:11:54;;;;;;;19.37;10.07;;;13.60;99.90;;;;;;5019332;28;20194;-86
2021/10/15 07:14:20;;;;;;;18.43;9.80;;;13.70;99.90;;;;;;5017548;28;20197;-87
2021/10/15 07:16:46;;;;;;;20.27;11.07;;;13.80;99.90;;;;;;5037185;28;20260;-86
2021/10/15 07:19:13;;;;;;;22.23;10.23;;;13.80;99.90;;;;;;5014770;28;20204;-86
2021/10/15 07:21:39;;;;;;;21.90;11.23;;;13.80;99.90;;;;;;5031130;28;20630;-87
2021/10/15 07:24:05;;;;;;;21.20;11.47;;;13.80;99.90;;;;;;5014405;28;20180;-87
2021/10/15 07:26:31;;;;;;;22.47;11.00;;;13.80;99.90;;;;;;5012460;28;20240;-87
2021/10/15 07:28:57;;;;;;;18.20;10.23;;;13.90;99.90;;;;;;5012484;28;20191;-87
2021/10/15 07:31:22;;;;;;;24.90;11.07;;;13.90;99.90;;;;;;5048695;28;20265;-87
2021/10/15 07:33:48;;;;;;;18.83;10.57;;;13.90;99.90;;;;;;5015143;28;20650;-87
2021/10/15 07:36:15;;;;;;;21.37;11.27;;;13.80;99.90;;;;;;5015568;28;20234;-87
2021/10/15 07:38:41;;;;;;;24.27;11.30;;;14.00;99.90;;;;;;5030926;28;20218;-88
2021/10/15 07:41:07;;;;;;;24.07;11.70;;;14.20;99.90;;;;;;5018342;28;20186;-85
2021/10/15 07:43:34;;;;;;;21.40;11.23;;;14.40;99.90;;;;;;5020302;28;20182;-87
2021/10/15 07:46:00;;;;;;;29.63;13.43;;;14.40;99.90;;;;;;5019780;28;20184;-86
2021/10/15 07:48:26;;;;;;;24.63;12.30;;;14.40;99.90;;;;;;5018930;28;20203;-86
2021/10/15 07:50:52;;;;;;;27.10;11.03;;;14.40;99.90;;;;;;5035670;28;20615;-87
2021/10/15 07:53:18;;;;;;;22.73;12.00;;;14.50;99.90;;;;;;5018263;28;20189;-88
2021/10/15 07:55:43;;;;;;;21.97;11.83;;;14.50;99.90;;;;;;5023641;28;20188;-87
2021/10/15 07:58:09;;;;;;;21.17;11.77;;;14.40;99.90;;;;;;5020408;28;20242;-87
2021/10/15 08:00:38;;;;;;;22.10;11.00;;;14.40;99.90;;;;;;5049906;28;20238;-87
2021/10/15 08:03:04;;;;;;;20.07;11.90;;;14.50;99.90;;;;;;5015291;28;20578;-88
2021/10/15 08:05:29;;;;;;;20.57;10.93;;;14.70;99.90;;;;;;5019560;28;20190;-88
2021/10/15 08:07:55;;;;;;;21.77;10.87;;;14.70;99.90;;;;;;5017182;28;20198;-87
2021/10/15 08:10:21;;;;;;;18.10;10.77;;;14.70;99.90;;;;;;5017996;28;20653;-88
2021/10/15 08:12:47;;;;;;;21.80;11.00;;;14.90;99.90;;;;;;5031198;28;20200;-86
2021/10/15 08:15:15;;;;;;;22.33;10.93;;;15.00;99.90;;;;;;5015747;28;20532;-87
2021/10/15 08:17:42;;;;;;;20.40;10.23;;;15.10;99.90;;;;;;5021847;28;20236;-89
2021/10/15 08:20:08;;;;;;;20.47;10.03;;;15.10;99.90;;;;;;5019505;28;20208;-88
2021/10/15 08:22:34;;;;;;;22.10;9.80;;;15.30;99.90;;;;;;5017688;28;20176;-87
2021/10/15 08:25:00;;;;;;;22.03;10.77;;;15.40;99.90;;;;;;5035732;28;20185;-89
2021/10/15 08:27:25;;;;;;;19.20;10.60;;;15.40;99.90;;;;;;5032893;28;20189;-88
2021/10/15 08:29:51;;;;;;;20.53;11.10;;;15.50;99.90;;;;;;5034613;28;20327;-89
2021/10/15 08:32:17;;;;;;;20.07;10.43;;;15.50;99.90;;;;;;5029813;28;20232;-88
2021/10/15 08:34:42;;;;;;;19.83;11.00;;;15.60;99.90;;;;;;5017801;28;20200;-88
2021/10/15 08:37:08;;;;;;;20.47;9.97;;;15.60;99.90;;;;;;5017895;28;20232;-87
2021/10/15 08:39:34;;;;;;;21.80;10.17;;;15.70;99.90;;;;;;5049595;28;20219;-90
2021/10/15 08:42:00;;;;;;;23.60;13.83;;;15.70;99.90;;;;;;5049804;28;20540;-87
2021/10/15 08:44:39;;;;;;;23.10;12.10;;;15.80;99.90;;;;;;5033802;28;20185;-88
2021/10/15 08:47:06;;;;;;;21.53;11.80;;;15.80;99.90;;;;;;5035161;28;20683;-89
2021/10/15 08:49:32;;;;;;;23.20;12.00;;;16.00;99.90;;;;;;5014729;28;20239;-88
2021/10/15 08:51:58;;;;;;;24.23;12.17;;;16.00;99.90;;;;;;5033608;28;20580;-89
2021/10/15 08:54:24;;;;;;;19.60;10.10;;;16.10;99.90;;;;;;5035491;28;20221;-89
2021/10/15 08:56:50;;;;;;;18.60;9.73;;;16.20;99.90;;;;;;5034529;28;20279;-88
2021/10/15 08:59:20;;;;;;;17.37;10.20;;;16.30;99.90;;;;;;5034672;28;20181;-88
2021/10/15 09:01:48;;;;;;;20.57;9.97;;;16.40;99.90;;;;;;5049757;28;20185;-88
2021/10/15 09:04:19;;;;;;;23.40;9.90;;;16.40;99.90;;;;;;5048597;28;20178;-88
2021/10/15 09:06:47;;;;;;;20.73;9.67;;;16.30;99.90;;;;;;5065830;28;20187;-89
2021/10/15 09:09:14;;;;;;;21.00;9.97;;;16.50;99.90;;;;;;5047930;28;20703;-88
2021/10/15 09:11:47;;;;;;;22.80;10.07;;;17.00;99.90;;;;;;5032464;28;20286;-87
2021/10/15 09:14:21;;;;;;;24.70;9.40;;;17.20;99.90;;;;;;5011380;28;20193;-88
2021/10/15 09:17:03;;;;;;;41.37;10.77;;;17.20;99.90;;;;;;5014424;28;20672;-87
2021/10/15 09:19:46;;;;;;;39.70;10.63;;;17.10;99.90;;;;;;5049571;28;20192;-89
2021/10/15 09:22:22;;;;;;;44.03;10.80;;;16.90;99.90;;;;;;5030454;28;20680;-87
2021/10/15 09:24:50;;;;;;;24.73;9.57;;;16.60;99.90;;;;;;5014858;28;20657;-88
2021/10/15 09:27:29;;;;;;;88.17;13.47;;;16.50;99.90;;;;;;5062395;28;20606;-88
2021/10/15 09:29:58;;;;;;;29.90;10.87;;;16.40;99.90;;;;;;5050616;28;20180;-87
2021/10/15 09:32:28;;;;;;;32.10;10.27;;;16.40;99.90;;;;;;5029391;28;20203;-87
2021/10/15 09:34:55;;;;;;;24.00;10.27;;;16.30;99.90;;;;;;5016142;28;20189;-86
2021/10/15 09:37:27;;;;;;;17.50;10.60;;;16.10;99.90;;;;;;5014735;28;20250;-86
2021/10/15 09:40:05;;;;;;;22.30;10.73;;;15.90;99.90;;;;;;5017443;28;20693;-87
2021/10/15 09:42:32;;;;;;;28.33;10.17;;;15.90;99.90;;;;;;5005355;28;20213;-87
2021/10/15 09:45:18;;;;;;;25.40;10.03;;;15.90;99.90;;;;;;5029389;28;20265;-87
2021/10/15 09:47:52;;;;;;;26.53;10.73;;;16.00;99.90;;;;;;5032862;28;20205;-87
2021/10/15 09:50:20;;;;;;;23.73;9.97;;;16.10;99.90;;;;;;5032733;28;20275;-87
2021/10/15 09:53:05;;;;;;;22.23;9.70;;;16.30;99.90;;;;;;5033674;28;20287;-87
2021/10/15 09:55:38;;;;;;;26.33;10.40;;;16.10;99.90;;;;;;5044454;28;20189;-87
2021/10/15 09:58:10;;;;;;;22.30;10.17;;;16.00;99.90;;;;;;5046736;28;20253;-87
2021/10/15 10:00:36;;;;;;;20.00;10.70;;;16.10;99.90;;;;;;5016824;28;20220;-87
2021/10/15 10:03:02;;;;;;;24.27;10.20;;;16.10;99.90;;;;;;5044321;28;20193;-87
2021/10/15 10:05:28;;;;;;;22.13;10.03;;;15.90;99.90;;;;;;5032843;28;20181;-86
2021/10/15 10:07:54;;;;;;;20.37;10.43;;;15.70;99.90;;;;;;5031879;28;20681;-87
2021/10/15 10:10:23;;;;;;;22.87;10.07;;;15.70;99.90;;;;;;5032719;28;20214;-87
2021/10/15 10:12:52;;;;;;;23.53;10.47;;;15.90;99.90;;;;;;5015336;28;20184;-86
2021/10/15 10:15:22;;;;;;;21.57;10.10;;;16.10;99.90;;;;;;5049096;28;20654;-88
2021/10/15 10:18:26;;;;;;;19.83;9.43;;;16.30;99.90;;;;;;5027089;28;20623;-87
2021/10/15 10:21:05;;;;;;;22.87;10.23;;;16.60;99.90;;;;;;5028816;28;20213;-87
2021/10/15 10:23:39;;;;;;;23.87;10.10;;;16.80;99.90;;;;;;5047398;28;20174;-88
2021/10/15 10:26:08;;;;;;;21.20;10.80;;;16.70;99.90;;;;;;5027394;28;20185;-88
2021/10/15 10:28:34;;;;;;;23.03;11.13;;;16.70;99.90;;;;;;5040319;28;20194;-87
2021/10/15 10:31:03;;;;;;;23.30;10.80;;;16.70;99.90;;;;;;5030731;28;20200;-88
2021/10/15 10:33:31;;;;;;;24.07;11.13;;;16.50;99.90;;;;;;5045065;28;20188;-88
2021/10/15 10:36:12;;;;;;;17.67;10.07;;;16.60;99.90;;;;;;5014612;28;20256;-87
2021/10/15 10:38:39;;;;;;;20.33;11.10;;;16.50;99.90;;;;;;5013510;28;20253;-88
2021/10/15 10:41:05;;;;;;;23.17;11.57;;;16.50;99.90;;;;;;5013624;28;20251;-86
2021/10/15 10:43:44;;;;;;;21.57;12.37;;;16.50;99.90;;;;;;5027635;28;20194;-87
2021/10/15 10:46:26;;;;;;;26.90;12.60;;;16.50;99.90;;;;;;5042837;28;20676;-89
2021/10/15 10:48:52;;;;;;;23.63;12.17;;;16.40;99.90;;;;;;4996357;28;20195;-88
2021/10/15 10:51:22;;;;;;;25.53;13.87;;;16.30;99.90;;;;;;5030466;28;20185;-86
2021/10/15 10:54:03;;;;;;;26.27;13.70;;;16.30;99.90;;;;;;5012766;28;20185;-87
2021/10/15 10:56:50;;;;;;;26.23;13.20;;;16.40;99.90;;;;;;5060964;28;20209;-87
2021/10/15 10:59:16;;;;;;;19.17;12.37;;;15.90;99.90;;;;;;5028169;28;20706;-87
2021/10/15 11:01:50;;;;;;;19.80;12.73;;;15.50;99.90;;;;;;5012616;28;20198;-87
2021/10/15 11:04:33;;;;;;;18.73;11.80;;;15.10;99.90;;;;;;5012473;28;20186;-87
2021/10/15 11:07:06;;;;;;;19.53;10.63;;;14.60;99.90;;;;;;5013042;28;20195;-87
2021/10/15 11:09:46;;;;;;;16.77;9.20;;;14.70;99.90;;;;;;5017219;28;20195;-87
2021/10/15 11:12:41;;;;;;;12.70;8.07;;;14.80;99.90;;;;;;5043252;28;20196;-86
2021/10/15 11:15:12;;;;;;;17.70;8.50;;;14.60;99.90;;;;;;5016402;28;20284;-87
2021/10/15 11:17:47;;;;;;;12.03;6.60;;;14.40;99.90;;;;;;5067983;28;20257;-87
2021/10/15 11:20:25;;;;;;;13.27;5.40;;;14.20;99.90;;;;;;5015182;28;20190;-86
2021/10/15 11:23:00;;;;;;;9.03;3.10;;;14.10;99.90;;;;;;5049940;28;20205;-86
2021/10/15 11:25:35;;;;;;;11.30;3.63;;;13.80;99.90;;;;;;5051221;28;20181;-88
2021/10/15 11:28:09;;;;;;;11.77;3.43;;;13.70;99.90;;;;;;5050526;28;20330;-86
2021/10/15 11:30:44;;;;;;;9.87;3.07;;;13.80;99.90;;;;;;5035292;28;20263;-87
2021/10/15 11:33:12;;;;;;;10.27;3.30;;;13.90;99.90;;;;;;5032412;28;20189;-87
2021/10/15 11:35:40;;;;;;;12.80;3.37;;;14.00;99.90;;;;;;5035068;28;20217;-86
2021/10/15 11:38:08;;;;;;;11.57;3.10;;;14.10;99.90;;;;;;5033344;28;20264;-88
2021/10/15 11:40:40;;;;;;;8.33;2.90;;;14.10;99.90;;;;;;5049014;28;20182;-85
2021/10/15 11:43:34;;;;;;;13.37;3.17;;;14.10;99.90;;;;;;5018427;28;20179;-87
2021/10/15 11:46:17;;;;;;;11.30;3.33;;;14.30;99.90;;;;;;5016116;28;20198;-87
2021/10/15 11:48:49;;;;;;;10.47;3.00;;;14.50;99.90;;;;;;5049099;28;20602;-87
2021/10/15 11:51:19;;;;;;;9.63;4.33;;;14.80;99.90;;;;;;5031933;28;20690;-84
2021/10/15 11:53:48;;;;;;;14.07;4.47;;;14.90;99.90;;;;;;5017609;28;20241;-86
2021/10/15 11:56:25;;;;;;;12.83;4.47;;;15.00;99.90;;;;;;5028377;28;20214;-86
2021/10/15 11:58:55;;;;;;;9.73;4.93;;;15.20;99.90;;;;;;5017597;28;20179;-86
2021/10/15 12:01:22;;;;;;;9.83;4.00;;;15.50;99.90;;;;;;5055568;28;20266;-86
2021/10/15 12:04:22;;;;;;;9.97;3.80;;;15.80;99.90;;;;;;5035655;28;20580;-86
2021/10/15 12:06:49;;;;;;;9.90;3.27;;;16.00;99.90;;;;;;5056620;28;20637;-85
2021/10/15 12:09:18;;;;;;;9.03;3.07;;;16.00;99.90;;;;;;5034680;28;20234;-86
2021/10/15 12:11:48;;;;;;;7.93;2.47;;;15.80;99.90;;;;;;5031885;28;20631;-86
2021/10/15 12:14:21;;;;;;;8.00;2.73;;;15.80;99.90;;;;;;5039060;28;20595;-84
2021/10/15 12:17:05;;;;;;;10.40;3.20;;;15.70;99.90;;;;;;5063252;28;20217;-87
2021/10/15 12:19:48;;;;;;;11.60;2.80;;;15.70;99.90;;;;;;5030934;28;20284;-84
2021/10/15 12:22:26;;;;;;;10.93;3.10;;;15.80;99.90;;;;;;5032681;28;20177;-84
2021/10/15 12:25:03;;;;;;;13.73;3.50;;;16.00;99.90;;;;;;5036742;28;20556;-84
2021/10/15 12:27:39;;;;;;;10.30;3.00;;;16.30;99.90;;;;;;5047016;28;20544;-85
2021/10/15 12:30:19;;;;;;;10.57;3.07;;;16.30;99.90;;;;;;5016212;28;20220;-85
2021/10/15 12:32:45;;;;;;;12.27;2.87;;;16.30;99.90;;;;;;5048946;28;20224;-84
2021/10/15 12:35:14;;;;;;;8.47;2.53;;;16.40;99.90;;;;;;5033892;28;20193;-84
2021/10/15 12:37:56;;;;;;;9.63;2.40;;;16.50;99.90;;;;;;5016124;28;20715;-85
2021/10/15 12:40:25;;;;;;;7.57;2.40;;;16.70;99.90;;;;;;5037401;28;20190;-85
2021/10/15 12:43:03;;;;;;;9.07;2.00;;;16.80;99.90;;;;;;5018369;28;20221;-84
2021/10/15 12:46:03;;;;;;;7.83;2.00;;;16.90;99.90;;;;;;5056671;28;20191;-85
2021/10/15 12:48:33;;;;;;;10.43;2.00;;;17.20;99.90;;;;;;5030110;28;20203;-85
2021/10/15 12:51:00;;;;;;;11.80;2.30;;;17.20;99.90;;;;;;5036143;28;20195;-86
2021/10/15 12:53:27;;;;;;;9.23;2.07;;;17.40;99.90;;;;;;5014618;28;20185;-85